Time;durP1;ratioP1;P1;durP2;ratioP2;P2;SDS_P1;SDS_P2;PMS_P1;PMS_P2;Temp;Humidity;BMP_temperature;BMP_pressure;BME280_temperature;BME280_humidity;BME280_pressure;Samples;Min_cycle;Max_cycle;Signal;HPM_P1;HPM_P2
2022/11/20 00:01:32;;;;;;;0.60;0.60;;;;;;;3.34;70.07;98882.97;4304102;33;35221;-72
2022/11/20 00:04:01;;;;;;;0.70;0.70;;;;;;;3.28;70.06;98893.19;4292564;33;33518;-73
2022/11/20 00:06:29;;;;;;;1.08;1.08;;;;;;;3.13;71.34;98888.75;4304357;33;34670;-73
2022/11/20 00:08:59;;;;;;;0.70;0.70;;;;;;;3.00;71.38;98887.69;4305393;33;35790;-73
2022/11/20 00:11:30;;;;;;;1.62;1.52;;;;;;;3.14;71.16;98891.31;4305502;33;34396;-74
2022/11/20 00:14:00;;;;;;;0.65;0.65;;;;;;;3.21;71.60;98895.69;4305449;33;33429;-73
2022/11/20 00:16:31;;;;;;;1.83;1.67;;;;;;;3.16;73.92;98899.94;4305478;33;33001;-73
2022/11/20 00:18:59;;;;;;;0.70;0.70;;;;;;;2.79;77.25;98890.91;4305408;33;35376;-73
2022/11/20 00:21:27;;;;;;;1.98;1.87;;;;;;;3.10;75.90;98892.12;4305300;33;34621;-72
2022/11/20 00:23:56;;;;;;;1.85;1.48;;;;;;;3.36;75.50;98897.56;4305285;33;33498;-72
2022/11/20 00:26:26;;;;;;;3.97;3.67;;;;;;;3.27;74.18;98896.63;4304397;33;34053;-73
2022/11/20 00:28:56;;;;;;;0.70;0.70;;;;;;;3.45;73.91;98889.09;4303915;33;35983;-73
2022/11/20 00:31:25;;;;;;;1.40;1.40;;;;;;;3.77;72.05;98888.53;4305505;33;35283;-73
2022/11/20 00:33:53;;;;;;;1.62;1.25;;;;;;;3.59;72.06;98895.22;4305332;33;33453;-74
2022/11/20 00:36:25;;;;;;;1.37;1.35;;;;;;;3.35;73.67;98910.41;4305223;33;33773;-73
2022/11/20 00:38:56;;;;;;;1.40;1.35;;;;;;;3.62;73.08;98909.88;4305358;33;35048;-73
2022/11/20 00:41:27;;;;;;;0.70;0.70;;;;;;;3.38;73.04;98920.75;4292119;33;35197;-73
2022/11/20 00:43:56;;;;;;;0.80;0.80;;;;;;;3.13;73.66;98905.03;4292508;33;33420;-73
2022/11/20 00:46:26;;;;;;;0.80;0.80;;;;;;;3.61;72.11;98900.41;4305186;33;33973;-73
2022/11/20 00:48:54;;;;;;;1.02;1.02;;;;;;;3.94;71.69;98886.97;4305192;33;34214;-73
2022/11/20 00:51:24;;;;;;;0.75;0.75;;;;;;;3.77;71.60;98889.38;4305105;33;34470;-73
2022/11/20 00:53:55;;;;;;;1.02;1.02;;;;;;;3.58;72.51;98883.22;4305211;33;34551;-74
2022/11/20 00:56:23;;;;;;;1.60;1.50;;;;;;;3.44;73.69;98883.91;4305136;33;33898;-73
2022/11/20 00:58:51;;;;;;;3.60;1.83;;;;;;;3.49;72.07;98885.69;4305165;33;35041;-73
2022/11/20 01:01:23;;;;;;;5.43;2.70;;;;;;;3.29;72.35;98874.34;4304973;33;35170;-73
2022/11/20 01:03:54;;;;;;;1.67;1.58;;;;;;;3.45;71.24;98876.22;4303977;33;33557;-73
2022/11/20 01:06:27;;;;;;;1.50;1.42;;;;;;;3.63;69.58;98884.97;4304955;33;33905;-73
2022/11/20 01:08:57;;;;;;;1.70;1.60;;;;;;;3.33;70.60;98901.81;4304088;33;35094;-73
2022/11/20 01:11:28;;;;;;;1.42;1.30;;;;;;;3.39;70.75;98896.75;4304888;33;34590;-73
2022/11/20 01:13:58;;;;;;;2.83;2.65;;;;;;;2.81;74.81;98902.91;4303953;33;34277;-73
2022/11/20 01:16:31;;;;;;;0.98;0.95;;;;;;;3.28;72.97;98898.31;4305084;33;33783;-73
2022/11/20 01:19:02;;;;;;;1.05;1.05;;;;;;;3.71;70.91;98909.09;4291984;33;35133;-74
2022/11/20 01:21:36;;;;;;;0.90;0.90;;;;;;;3.70;71.44;98897.06;4292118;33;34645;-73
2022/11/20 01:24:07;;;;;;;1.27;1.23;;;;;;;3.25;73.67;98912.03;4292070;33;33438;-73
2022/11/20 01:26:37;;;;;;;1.45;1.40;;;;;;;3.41;72.65;98908.78;4303715;33;34564;-73
2022/11/20 01:29:07;;;;;;;0.82;0.82;;;;;;;3.03;74.91;98910.91;4303272;33;35098;-73
2022/11/20 01:31:36;;;;;;;1.10;1.10;;;;;;;3.16;74.63;98910.22;4304842;33;34589;-74
2022/11/20 01:34:09;;;;;;;1.15;1.12;;;;;;;3.02;74.58;98906.62;4305090;33;32616;-74
2022/11/20 01:36:37;;;;;;;0.98;0.98;;;;;;;2.91;76.05;98903.91;4304980;33;34103;-73
2022/11/20 01:39:18;;;;;;;2.65;1.87;;;;;;;2.92;76.20;98902.19;4291809;33;34957;-73
2022/11/20 01:44:54;;;;;;;0.70;0.70;;;;;;;2.26;78.44;98899.56;4294064;33;33696;-73
2022/11/20 01:47:28;;;;;;;1.95;1.85;;;;;;;2.53;76.96;98896.53;4304771;33;34666;-74
2022/11/20 01:50:10;;;;;;;1.37;1.27;;;;;;;2.79;76.19;98885.75;4304738;33;35855;-73
2022/11/20 01:52:50;;;;;;;1.37;1.00;;;;;;;3.01;74.95;98886.88;4303740;33;35180;-73
2022/11/20 01:55:22;;;;;;;0.70;0.70;;;;;;;3.08;74.91;98877.53;4305072;33;33540;-73
2022/11/20 01:57:50;;;;;;;0.60;0.60;;;;;;;3.02;74.78;98878.31;4303696;33;33820;-73
2022/11/20 02:00:19;;;;;;;2.72;2.05;;;;;;;2.65;76.37;98881.28;4304696;33;35184;-74
2022/11/20 02:02:54;;;;;;;0.60;0.60;;;;;;;2.57;77.24;98888.00;4304622;33;34419;-73
2022/11/20 02:05:45;;;;;;;2.03;1.90;;;;;;;2.82;74.96;98886.66;4303675;33;33408;-73
2022/11/20 02:08:14;;;;;;;0.60;0.60;;;;;;;3.00;75.33;98890.28;4304699;33;33956;-73
2022/11/20 02:10:42;;;;;;;4.95;1.50;;;;;;;2.92;75.49;98890.19;4304678;33;36049;-73
2022/11/20 02:15:56;;;;;;;0.60;0.60;;;;;;;3.07;74.98;98893.78;4304615;33;33518;-73
2022/11/20 02:18:24;;;;;;;1.37;1.37;;;;;;;3.06;75.03;98880.06;4304620;33;34846;-73
2022/11/20 02:21:18;;;;;;;1.67;1.58;;;;;;;3.08;76.06;98886.09;4303444;33;35033;-73
2022/11/20 02:24:09;;;;;;;1.70;1.60;;;;;;;3.25;75.72;98895.72;4304297;33;34712;-73
2022/11/20 02:26:41;;;;;;;1.83;1.70;;;;;;;2.79;77.56;98904.59;4303440;33;33442;-72
2022/11/20 02:29:10;;;;;;;1.42;1.42;;;;;;;2.32;80.09;98897.06;4303260;33;33990;-73
2022/11/20 02:31:40;;;;;;;11.60;3.12;;;;;;;3.30;76.68;98878.63;4304499;33;36037;-73
2022/11/20 02:34:09;;;;;;;0.85;0.85;;;;;;;3.55;73.71;98877.19;4303343;33;35235;-73
2022/11/20 02:36:39;;;;;;;3.67;3.47;;;;;;;3.18;74.81;98875.06;4304420;33;33674;-72
2022/11/20 02:39:09;;;;;;;0.70;0.70;;;;;;;2.91;77.12;98877.31;4290330;33;33959;-73
2022/11/20 02:41:38;;;;;;;1.98;1.87;;;;;;;2.84;77.56;98878.94;4303154;33;34302;-73
2022/11/20 02:44:06;;;;;;;1.25;1.25;;;;;;;3.99;72.64;98871.56;4304255;33;34625;-73
2022/11/20 02:46:34;;;;;;;1.17;1.17;;;;;;;4.34;70.46;98865.78;4290974;33;32350;-73
2022/11/20 02:49:03;;;;;;;0.70;0.70;;;;;;;4.09;70.93;98865.63;4303157;33;34094;-73
2022/11/20 02:51:32;;;;;;;2.15;1.77;;;;;;;3.90;71.77;98867.22;4304229;33;35974;-74
2022/11/20 02:54:00;;;;;;;0.70;0.70;;;;;;;4.43;69.91;98865.87;4304194;33;34348;-73
2022/11/20 02:56:28;;;;;;;1.70;1.60;;;;;;;4.70;68.47;98878.06;4304203;33;33709;-72
2022/11/20 02:58:56;;;;;;;1.02;1.02;;;;;;;4.01;70.04;98868.97;4304102;33;33809;-72
2022/11/20 03:01:24;;;;;;;0.60;0.60;;;;;;;3.77;71.43;98855.06;4303833;33;35021;-73
2022/11/20 03:03:54;;;;;;;0.60;0.60;;;;;;;4.10;70.61;98851.03;4304044;33;34554;-73
2022/11/20 03:06:22;;;;;;;4.07;2.25;;;;;;;3.36;73.69;98850.41;4304094;33;33348;-73
2022/11/20 03:08:50;;;;;;;1.83;1.73;;;;;;;2.41;79.54;98847.53;4303974;33;33969;-73
2022/11/20 03:11:19;;;;;;;1.33;1.02;;;;;;;3.02;78.48;98839.75;4303857;33;35199;-73
2022/11/20 03:13:47;;;;;;;1.02;1.02;;;;;;;3.13;77.28;98851.00;4303857;33;34582;-72
2022/11/20 03:16:20;;;;;;;1.10;1.10;;;;;;;3.61;75.31;98847.19;4302858;33;33454;-73
2022/11/20 03:18:49;;;;;;;0.80;0.80;;;;;;;3.45;74.52;98847.91;4303821;33;33984;-72
2022/11/20 03:21:17;;;;;;;1.58;1.48;;;;;;;2.77;78.19;98854.88;4303798;33;35061;-72
2022/11/20 03:23:45;;;;;;;0.62;0.62;;;;;;;2.85;78.76;98866.09;4303880;33;35154;-73
2022/11/20 03:26:19;;;;;;;1.70;1.60;;;;;;;3.71;74.55;98875.63;4303821;33;33612;-73
2022/11/20 03:28:51;;;;;;;1.00;0.95;;;;;;;3.98;72.57;98870.69;4290503;33;33883;-72
2022/11/20 03:31:27;;;;;;;1.35;1.25;;;;;;;3.49;74.46;98879.69;4290828;33;34983;-73
2022/11/20 03:33:56;;;;;;;2.40;2.25;;;;;;;3.22;75.96;98879.41;4303775;33;34597;-73
2022/11/20 03:36:25;;;;;;;3.15;1.80;;;;;;;2.72;79.62;98871.94;4303621;33;33501;-73
2022/11/20 03:38:55;;;;;;;1.10;1.05;;;;;;;3.06;77.66;98872.34;4303491;33;33895;-73
2022/11/20 03:41:28;;;;;;;0.60;0.60;;;;;;;3.50;76.42;98866.84;4298005;33;35819;-73
2022/11/20 03:44:01;;;;;;;4.03;1.48;;;;;;;3.41;76.59;98864.16;4303503;33;34507;-73
2022/11/20 03:46:29;;;;;;;3.87;2.03;;;;;;;3.17;78.58;98860.47;4290495;33;34243;-73
2022/11/20 03:48:58;;;;;;;1.40;1.30;;;;;;;2.56;81.63;98864.84;4303456;33;33905;-73
2022/11/20 03:51:28;;;;;;;2.83;1.70;;;;;;;2.90;80.40;98875.59;4304921;33;35869;-73
2022/11/20 03:53:58;;;;;;;1.83;1.73;;;;;;;3.04;79.50;98880.06;4280793;33;33719;-73
2022/11/20 03:56:29;;;;;;;2.12;1.98;;;;;;;3.37;78.35;98882.97;4304469;33;32521;-73
2022/11/20 03:58:57;;;;;;;1.42;1.33;;;;;;;3.30;79.26;98871.78;4305576;33;34605;-72
2022/11/20 04:01:28;;;;;;;1.75;1.65;;;;;;;3.23;78.20;98864.84;4304313;33;35253;-72
2022/11/20 04:03:57;;;;;;;0.88;0.88;;;;;;;3.72;75.71;98849.84;4292454;33;34331;-72
2022/11/20 04:06:32;;;;;;;0.60;0.60;;;;;;;3.98;74.71;98846.66;4305547;33;33490;-73
2022/11/20 04:09:01;;;;;;;6.53;3.42;;;;;;;3.94;74.36;98845.75;4305494;33;34700;-73
2022/11/20 04:11:31;;;;;;;1.10;1.10;;;;;;;4.10;74.21;98840.75;4292180;33;34427;-73
2022/11/20 04:14:02;;;;;;;0.85;0.85;;;;;;;4.18;73.17;98836.47;4305482;33;33645;-73
2022/11/20 04:16:32;;;;;;;0.98;0.98;;;;;;;3.34;77.89;98836.66;4292479;33;33557;-73
2022/11/20 04:19:02;;;;;;;0.85;0.85;;;;;;;3.75;75.88;98820.72;4305458;33;32956;-73
2022/11/20 04:21:30;;;;;;;1.02;1.02;;;;;;;3.31;78.58;98826.31;4305399;33;35826;-73
2022/11/20 04:23:58;;;;;;;0.93;0.93;;;;;;;3.61;77.87;98821.44;4305318;33;34434;-73
2022/11/20 04:26:27;;;;;;;0.90;0.90;;;;;;;3.78;76.77;98824.19;4305292;33;34172;-73
2022/11/20 04:28:57;;;;;;;1.87;1.77;;;;;;;3.59;78.33;98830.03;4305094;33;34816;-73
2022/11/20 04:31:27;;;;;;;1.60;1.50;;;;;;;3.93;75.80;98827.72;4304179;33;34963;-73
2022/11/20 04:33:58;;;;;;;0.90;0.90;;;;;;;3.57;77.19;98832.56;4305521;33;34632;-74
2022/11/20 04:36:27;;;;;;;0.75;0.75;;;;;;;3.20;78.91;98828.78;4304210;33;33398;-74
2022/11/20 04:38:57;;;;;;;1.90;1.80;;;;;;;3.83;76.79;98824.22;4305130;33;34824;-73
2022/11/20 04:41:28;;;;;;;5.15;3.17;;;;;;;3.86;75.46;98826.81;4305301;33;35132;-73
2022/11/20 04:44:07;;;;;;;0.75;0.75;;;;;;;3.96;75.21;98812.28;4305057;33;35080;-73
2022/11/20 04:46:40;;;;;;;3.53;3.25;;;;;;;3.71;75.71;98817.25;4305555;33;34167;-73
2022/11/20 04:49:08;;;;;;;0.70;0.70;;;;;;;3.96;74.54;98814.88;4292276;33;33742;-73
2022/11/20 04:51:36;;;;;;;1.08;1.08;;;;;;;4.20;74.16;98815.88;4305234;33;35064;-73
2022/11/20 04:54:04;;;;;;;0.88;0.88;;;;;;;4.12;74.05;98802.97;4305339;33;34449;-73
2022/11/20 04:56:33;;;;;;;0.75;0.75;;;;;;;3.98;74.96;98806.28;4303927;33;33584;-73
2022/11/20 04:59:01;;;;;;;1.25;1.15;;;;;;;3.96;75.21;98802.00;4305200;33;33867;-72
2022/11/20 05:01:30;;;;;;;0.68;0.68;;;;;;;3.76;76.27;98814.72;4304726;33;35991;-73
2022/11/20 05:03:58;;;;;;;1.90;1.80;;;;;;;3.53;76.65;98811.94;4304555;33;34536;-72
2022/11/20 05:06:26;;;;;;;1.23;1.23;;;;;;;3.54;77.61;98808.50;4305129;33;33564;-73
2022/11/20 05:08:54;;;;;;;0.82;0.82;;;;;;;3.31;78.69;98814.31;4305038;33;34304;-73
2022/11/20 05:11:23;;;;;;;1.10;1.10;;;;;;;3.10;78.87;98817.53;4305065;33;35168;-73
2022/11/20 05:13:51;;;;;;;1.60;1.50;;;;;;;2.87;80.56;98813.84;4305053;33;34539;-73
2022/11/20 05:16:23;;;;;;;0.60;0.60;;;;;;;3.20;79.88;98803.91;4305020;33;33561;-73
2022/11/20 05:18:54;;;;;;;3.40;1.17;;;;;;;3.59;77.97;98807.69;4305064;33;33799;-73
2022/11/20 05:21:22;;;;;;;0.75;0.75;;;;;;;3.34;79.83;98826.34;4303835;33;36009;-73
2022/11/20 05:23:50;;;;;;;1.10;1.10;;;;;;;3.93;76.48;98815.69;4304872;33;34314;-73
2022/11/20 05:26:23;;;;;;;2.15;2.05;;;;;;;4.16;75.80;98799.53;4305018;33;33538;-73
2022/11/20 05:28:52;;;;;;;1.25;1.15;;;;;;;4.17;74.33;98802.13;4303654;33;33974;-73
2022/11/20 05:31:22;;;;;;;1.25;1.23;;;;;;;4.03;75.78;98798.59;4304923;33;35850;-73
2022/11/20 05:33:56;;;;;;;0.88;0.88;;;;;;;4.04;75.20;98789.16;4305011;33;34515;-72
2022/11/20 05:36:24;;;;;;;1.15;1.15;;;;;;;4.27;73.72;98782.44;4292061;33;33548;-74
2022/11/20 05:38:52;;;;;;;1.35;1.30;;;;;;;3.86;75.33;98772.72;4304829;33;33902;-73
2022/11/20 05:41:28;;;;;;;5.50;2.33;;;;;;;3.48;77.85;98786.16;4303900;33;35142;-73
2022/11/20 05:43:57;;;;;;;0.80;0.80;;;;;;;3.89;75.71;98785.62;4304799;33;34380;-73
2022/11/20 05:46:25;;;;;;;0.80;0.80;;;;;;;4.36;73.74;98792.78;4305028;33;34321;-73
2022/11/20 05:48:56;;;;;;;2.00;1.90;;;;;;;4.60;71.85;98803.22;4304856;33;34009;-72
2022/11/20 05:51:25;;;;;;;1.42;1.40;;;;;;;4.66;71.84;98805.81;4304870;33;35067;-73
2022/11/20 05:53:56;;;;;;;2.60;1.58;;;;;;;4.30;72.75;98802.19;4304791;33;35355;-73
2022/11/20 05:56:24;;;;;;;1.90;1.80;;;;;;;3.83;74.43;98803.63;4291966;33;33637;-73
2022/11/20 05:58:52;;;;;;;0.55;0.55;;;;;;;3.97;74.24;98817.47;4304868;33;34001;-74
2022/11/20 06:01:23;;;;;;;1.65;1.58;;;;;;;4.70;70.86;98808.41;4304670;33;35011;-73
2022/11/20 06:03:53;;;;;;;3.42;1.65;;;;;;;3.92;75.63;98811.41;4304762;33;35090;-73
2022/11/20 06:06:21;;;;;;;1.85;1.33;;;;;;;4.11;74.25;98819.25;4304694;33;34173;-74
2022/11/20 06:08:49;;;;;;;0.80;0.77;;;;;;;4.31;72.38;98809.94;4304696;33;33951;-72
2022/11/20 06:11:18;;;;;;;1.02;1.02;;;;;;;4.43;71.37;98814.31;4304517;33;36024;-72
2022/11/20 06:13:46;;;;;;;1.85;1.73;;;;;;;4.05;72.36;98820.06;4304352;33;34550;-73
2022/11/20 06:16:18;;;;;;;1.15;1.12;;;;;;;3.89;73.21;98816.53;4304726;33;33330;-74
2022/11/20 06:18:47;;;;;;;1.73;1.62;;;;;;;4.23;72.56;98821.91;4304579;33;34506;-73
2022/11/20 06:21:17;;;;;;;1.12;1.02;;;;;;;3.76;74.40;98820.72;4304590;33;35087;-74
2022/11/20 06:23:45;;;;;;;1.25;1.15;;;;;;;4.28;72.46;98819.37;4291392;33;34424;-73
2022/11/20 06:26:16;;;;;;;1.25;1.25;;;;;;;3.99;72.13;98818.31;4304688;33;33548;-73
2022/11/20 06:28:45;;;;;;;0.73;0.73;;;;;;;3.92;73.47;98823.44;4304378;33;33085;-73
2022/11/20 06:31:14;;;;;;;4.68;4.43;;;;;;;4.37;72.03;98820.28;4304551;33;35218;-73
2022/11/20 06:33:43;;;;;;;2.85;1.77;;;;;;;4.07;74.02;98832.97;4304414;33;34595;-73
2022/11/20 06:36:13;;;;;;;1.40;1.40;;;;;;;3.71;76.91;98835.28;4291394;33;33335;-73
2022/11/20 06:38:42;;;;;;;0.80;0.80;;;;;;;4.06;74.72;98838.97;4304460;33;33869;-73
2022/11/20 06:41:13;;;;;;;0.98;0.98;;;;;;;4.00;75.20;98852.66;4303086;33;34930;-72
2022/11/20 06:43:41;;;;;;;0.90;0.90;;;;;;;4.20;73.63;98847.69;4304290;33;35172;-72
2022/11/20 06:46:11;;;;;;;3.35;2.40;;;;;;;4.17;72.85;98852.81;4304203;33;33634;-73
2022/11/20 06:48:39;;;;;;;1.05;1.05;;;;;;;4.17;74.12;98852.81;4291298;33;33947;-72
2022/11/20 06:51:07;;;;;;;2.40;2.12;;;;;;;3.77;74.44;98849.91;4304525;33;35066;-73
2022/11/20 06:53:36;;;;;;;1.12;1.12;;;;;;;4.66;71.99;98853.09;4304167;33;35373;-73
2022/11/20 06:56:05;;;;;;;4.87;2.17;;;;;;;4.55;72.36;98844.44;4291623;33;33378;-73
2022/11/20 06:58:34;;;;;;;1.35;1.30;;;;;;;4.31;74.01;98846.03;4304129;33;33901;-73
2022/11/20 07:01:09;;;;;;;1.17;1.12;;;;;;;3.83;77.42;98842.25;4304051;33;35055;-73
2022/11/20 07:03:37;;;;;;;0.75;0.75;;;;;;;4.03;77.23;98836.38;4304121;33;34927;-73
2022/11/20 07:06:06;;;;;;;2.92;1.27;;;;;;;4.01;77.72;98844.09;4304074;33;33422;-73
2022/11/20 07:08:35;;;;;;;0.80;0.80;;;;;;;4.21;77.50;98845.97;4302832;33;33762;-73
2022/11/20 07:11:05;;;;;;;1.60;1.50;;;;;;;4.32;75.38;98846.88;4291000;33;35237;-73
2022/11/20 07:13:33;;;;;;;0.80;0.80;;;;;;;4.11;78.18;98860.47;4304040;33;34548;-73
2022/11/20 07:16:04;;;;;;;0.93;0.93;;;;;;;4.47;76.16;98871.91;4302794;33;34243;-73
2022/11/20 07:18:32;;;;;;;1.27;1.20;;;;;;;4.94;73.96;98868.69;4303826;33;33250;-73
2022/11/20 07:21:05;;;;;;;1.25;1.15;;;;;;;4.98;73.72;98870.44;4303731;33;35011;-72
2022/11/20 07:23:33;;;;;;;0.60;0.60;;;;;;;4.65;75.38;98864.25;4303810;33;35273;-73
2022/11/20 07:26:06;;;;;;;2.37;2.25;;;;;;;5.26;73.78;98865.41;4304657;33;33484;-73
2022/11/20 07:28:35;;;;;;;1.20;1.20;;;;;;;4.75;76.01;98867.78;4305514;33;34008;-72
2022/11/20 07:31:04;;;;;;;1.00;1.00;;;;;;;4.72;74.99;98871.19;4305656;33;35831;-73
2022/11/20 07:33:32;;;;;;;2.20;2.10;;;;;;;4.52;76.47;98878.81;4305883;33;35085;-73
2022/11/20 07:36:01;;;;;;;1.67;1.58;;;;;;;4.60;75.68;98878.00;4305643;33;33537;-73
2022/11/20 07:38:30;;;;;;;0.77;0.77;;;;;;;4.70;74.20;98870.31;4305631;33;33938;-72
2022/11/20 07:40:58;;;;;;;0.65;0.65;;;;;;;4.34;77.15;98866.69;4305586;33;36018;-73
2022/11/20 07:43:26;;;;;;;2.30;2.05;;;;;;;4.51;75.74;98864.19;4305501;33;35203;-73
2022/11/20 07:45:58;;;;;;;1.30;1.20;;;;;;;4.50;75.47;98866.75;4305522;33;33497;-73
2022/11/20 07:48:26;;;;;;;0.60;0.60;;;;;;;4.69;75.56;98865.16;4305649;33;34808;-73
2022/11/20 07:50:55;;;;;;;1.10;1.10;;;;;;;4.83;75.60;98867.78;4305526;33;35104;-73
2022/11/20 07:53:24;;;;;;;0.70;0.70;;;;;;;4.92;75.96;98865.25;4292527;33;35169;-73
2022/11/20 07:55:52;;;;;;;0.60;0.60;;;;;;;4.27;78.81;98864.91;4305622;33;34350;-73
2022/11/20 07:58:21;;;;;;;2.00;1.85;;;;;;;4.70;76.87;98865.16;4299616;33;34607;-72
2022/11/20 08:00:49;;;;;;;1.33;1.27;;;;;;;4.71;76.60;98858.28;4305513;33;35031;-72
2022/11/20 08:03:17;;;;;;;0.85;0.85;;;;;;;5.22;74.37;98850.72;4305507;33;34456;-74
2022/11/20 08:05:51;;;;;;;0.60;0.60;;;;;;;4.63;76.05;98855.66;4292210;33;32721;-72
2022/11/20 08:08:21;;;;;;;1.27;1.27;;;;;;;5.07;75.83;98855.00;4304351;33;33913;-73
2022/11/20 08:10:49;;;;;;;1.15;1.15;;;;;;;5.36;74.24;98850.78;4305414;33;35176;-74
2022/11/20 08:16:04;;;;;;;1.02;1.02;;;;;;;4.45;81.10;98847.84;4304559;33;33530;-73
2022/11/20 08:18:31;;;;;;;0.62;0.62;;;;;;;5.24;77.76;98857.66;4305350;33;34232;-73
2022/11/20 08:21:03;;;;;;;1.90;1.80;;;;;;;5.17;78.28;98847.28;4305354;33;35381;-72
2022/11/20 08:23:32;;;;;;;0.98;0.98;;;;;;;5.29;77.78;98860.22;4305295;33;35119;-73
2022/11/20 08:26:00;;;;;;;0.70;0.70;;;;;;;5.27;77.72;98846.44;4305300;33;34348;-72
2022/11/20 08:28:28;;;;;;;1.02;1.02;;;;;;;5.23;79.22;98849.91;4305380;33;34863;-73
2022/11/20 08:31:01;;;;;;;1.42;1.35;;;;;;;4.57;82.46;98858.22;4305570;33;35065;-73
2022/11/20 08:33:30;;;;;;;1.17;1.17;;;;;;;5.36;79.04;98863.69;4305413;33;35194;-73
2022/11/20 08:36:07;;;;;;;0.80;0.80;;;;;;;5.25;78.56;98866.25;4305312;33;33646;-74
2022/11/20 08:38:35;;;;;;;1.85;1.75;;;;;;;5.43;78.48;98863.69;4304627;33;34015;-74
2022/11/20 08:43:55;;;;;;;1.23;1.17;;;;;;;6.03;76.10;98861.19;4305442;33;34539;-73
2022/11/20 08:46:31;;;;;;;1.45;1.12;;;;;;;5.86;76.64;98874.09;4305228;33;33581;-73
2022/11/20 08:48:59;;;;;;;0.60;0.60;;;;;;;5.92;77.67;98870.66;4305128;33;33895;-72
2022/11/20 08:51:28;;;;;;;1.23;1.17;;;;;;;6.45;74.94;98874.94;4305183;33;35176;-74
2022/11/20 08:53:56;;;;;;;2.80;2.25;;;;;;;6.13;77.82;98882.75;4305418;33;34705;-74
2022/11/20 08:56:24;;;;;;;1.67;1.58;;;;;;;5.98;77.08;98882.75;4305237;33;33583;-74
2022/11/20 08:58:52;;;;;;;1.30;1.25;;;;;;;6.04;76.44;98893.94;4305013;33;33823;-72
2022/11/20 09:01:40;;;;;;;6.90;4.12;;;;;;;6.64;74.39;98890.47;4301196;33;35903;-72
2022/11/20 09:04:09;;;;;;;1.10;1.10;;;;;;;6.90;73.52;98899.84;4304996;33;34442;-74
2022/11/20 09:06:37;;;;;;;1.87;1.77;;;;;;;6.45;74.25;98898.22;4305030;33;33454;-74
2022/11/20 09:09:05;;;;;;;0.62;0.62;;;;;;;6.53;75.02;98898.25;4305033;33;34797;-74
2022/11/20 09:11:35;;;;;;;1.55;1.33;;;;;;;6.61;74.91;98896.47;4304973;33;35188;-73
2022/11/20 09:14:04;;;;;;;2.05;1.45;;;;;;;6.75;72.57;98898.19;4305015;33;34498;-73
2022/11/20 09:16:32;;;;;;;1.23;1.12;;;;;;;6.65;71.89;98892.16;4305093;33;34467;-73
2022/11/20 09:19:00;;;;;;;1.08;1.08;;;;;;;6.88;70.49;98889.50;4304997;33;33376;-72
2022/11/20 09:21:48;;;;;;;0.85;0.85;;;;;;;6.50;70.93;98898.25;4305041;33;35811;-73
2022/11/20 09:24:18;;;;;;;0.93;0.93;;;;;;;6.64;70.62;98900.81;4304937;33;34884;-74
2022/11/20 09:26:46;;;;;;;1.62;0.98;;;;;;;6.95;68.57;98896.41;4304950;33;33394;-73
2022/11/20 09:29:14;;;;;;;0.85;0.85;;;;;;;6.76;68.86;98887.84;4304844;33;34079;-73
2022/11/20 09:31:42;;;;;;;0.80;0.80;;;;;;;6.42;69.90;98889.63;4304892;33;35027;-73
2022/11/20 09:34:10;;;;;;;1.30;1.25;;;;;;;6.52;69.70;98882.72;4304902;33;34570;-73
2022/11/20 09:36:38;;;;;;;2.20;2.10;;;;;;;5.95;72.39;98891.34;4304862;33;33564;-74
2022/11/20 09:39:07;;;;;;;1.40;1.35;;;;;;;6.19;70.53;98893.06;4304925;33;34001;-73
2022/11/20 09:41:53;;;;;;;1.05;1.02;;;;;;;5.92;71.16;98893.06;4304954;33;36143;-73
2022/11/20 09:44:57;;;;;;;1.02;0.98;;;;;;;6.03;70.84;98892.22;4299127;33;34465;-73
2022/11/20 09:47:59;;;;;;;0.80;0.80;;;;;;;5.99;71.64;98892.22;4304896;33;33348;-73
2022/11/20 09:50:27;;;;;;;1.00;1.00;;;;;;;6.10;72.60;98893.09;4305088;33;34794;-73
2022/11/20 09:53:09;;;;;;;0.93;0.93;;;;;;;5.66;73.39;98888.72;4305186;33;34922;-73
2022/11/20 09:55:39;;;;;;;3.70;1.70;;;;;;;5.94;73.61;98899.94;4304853;33;34561;-73
2022/11/20 09:58:16;;;;;;;0.70;0.70;;;;;;;6.26;73.27;98896.53;4303669;33;34351;-73
2022/11/20 10:00:45;;;;;;;0.90;0.90;;;;;;;5.96;75.12;98894.81;4303736;33;34047;-73
2022/11/20 10:03:21;;;;;;;1.92;1.83;;;;;;;6.14;74.18;98889.66;4304762;33;35622;-74
2022/11/20 10:05:57;;;;;;;1.95;1.85;;;;;;;6.66;73.13;98883.53;4303443;33;35262;-73
2022/11/20 10:08:36;;;;;;;2.17;1.83;;;;;;;6.62;72.32;98887.00;4304750;33;33613;-73
2022/11/20 10:11:20;;;;;;;0.68;0.68;;;;;;;6.48;72.15;98878.41;4291749;33;34713;-73
2022/11/20 10:14:16;;;;;;;0.80;0.80;;;;;;;6.44;72.44;98862.03;4303845;33;35037;-74
2022/11/20 10:17:09;;;;;;;1.30;1.30;;;;;;;6.83;71.64;98857.63;4304641;33;34621;-72
2022/11/20 10:19:43;;;;;;;2.00;1.90;;;;;;;7.45;70.32;98847.84;4304630;33;34251;-72
2022/11/20 10:22:51;;;;;;;4.45;2.90;;;;;;;7.55;70.89;98841.75;4304709;33;33867;-72
2022/11/20 10:25:37;;;;;;;1.37;1.30;;;;;;;7.84;71.26;98835.47;4279324;33;34786;-74
2022/11/20 10:28:27;;;;;;;2.50;2.37;;;;;;;8.38;69.35;98839.31;4304570;33;34467;-74
2022/11/20 10:31:06;;;;;;;1.45;1.35;;;;;;;8.63;66.21;98846.00;4303360;33;33432;-73
2022/11/20 10:33:41;;;;;;;1.73;1.27;;;;;;;8.76;66.75;98838.09;4291659;33;33802;-74
2022/11/20 10:36:47;;;;;;;1.85;1.65;;;;;;;9.37;64.17;98832.12;4304434;33;36018;-74
2022/11/20 10:39:20;;;;;;;1.95;1.85;;;;;;;10.19;61.51;98831.69;4303331;33;35150;-74
2022/11/20 10:41:51;;;;;;;2.72;2.45;;;;;;;10.11;59.23;98823.16;4303394;33;34269;-74
2022/11/20 10:47:18;;;;;;;2.92;2.72;;;;;;;10.21;59.38;98832.50;4304322;33;35028;-73
2022/11/20 10:49:48;;;;;;;1.15;1.05;;;;;;;10.20;58.84;98822.13;4291291;33;34397;-73
2022/11/20 10:52:37;;;;;;;1.75;1.42;;;;;;;10.33;58.37;98818.47;4304296;33;33481;-74
2022/11/20 10:55:33;;;;;;;1.98;1.87;;;;;;;9.60;59.73;98830.91;4304228;33;34082;-73
2022/11/20 10:58:10;;;;;;;1.15;1.15;;;;;;;9.55;61.49;98838.78;4304225;33;35086;-73
2022/11/20 11:00:39;;;;;;;1.98;1.85;;;;;;;9.97;59.96;98846.81;4304684;33;35011;-74
2022/11/20 11:03:33;;;;;;;3.92;2.25;;;;;;;9.47;60.94;98856.22;4305894;33;33647;-72
2022/11/20 11:06:01;;;;;;;0.82;0.77;;;;;;;9.42;60.82;98863.22;4304542;33;33894;-73
2022/11/20 11:08:35;;;;;;;1.55;1.48;;;;;;;9.03;62.52;98860.25;4305746;33;35156;-73
2022/11/20 11:11:24;;;;;;;1.00;1.00;;;;;;;9.02;63.21;98855.97;4292895;33;34422;-73
2022/11/20 11:13:53;;;;;;;1.25;1.23;;;;;;;8.48;65.41;98851.34;4305799;33;33574;-73
2022/11/20 11:16:24;;;;;;;2.97;2.62;;;;;;;8.07;68.25;98863.81;4305868;33;34835;-73
2022/11/20 11:19:03;;;;;;;1.92;1.83;;;;;;;8.57;65.77;98866.81;4305978;33;35244;-72
2022/11/20 11:21:32;;;;;;;7.50;1.58;;;;;;;8.54;65.25;98862.53;4305815;33;34575;-73
2022/11/20 11:24:03;;;;;;;2.87;2.65;;;;;;;8.54;64.20;98867.72;4305813;33;34492;-74
2022/11/20 11:27:05;;;;;;;1.40;1.30;;;;;;;8.56;64.41;98862.53;4305699;33;33953;-73
2022/11/20 11:29:35;;;;;;;0.80;0.80;;;;;;;8.24;66.81;98862.78;4292664;33;35112;-73
2022/11/20 11:32:13;;;;;;;4.22;1.80;;;;;;;7.89;67.44;98866.56;4304555;33;35227;-73
2022/11/20 11:34:41;;;;;;;5.25;2.92;;;;;;;8.18;67.01;98862.84;4305716;33;34285;-73
2022/11/20 11:37:21;;;;;;;1.45;1.33;;;;;;;8.16;67.51;98865.47;4304645;33;34796;-73
2022/11/20 11:39:49;;;;;;;1.83;1.70;;;;;;;8.47;66.56;98857.41;4305728;33;36023;-73
2022/11/20 11:42:49;;;;;;;2.15;2.05;;;;;;;8.31;67.55;98854.06;4304818;33;34459;-73
2022/11/20 11:45:17;;;;;;;2.05;1.70;;;;;;;8.38;65.85;98844.50;4305614;33;34384;-73
2022/11/20 11:47:48;;;;;;;1.45;1.35;;;;;;;7.74;68.46;98842.44;4304606;33;33934;-72
2022/11/20 11:50:25;;;;;;;4.90;4.53;;;;;;;7.85;68.60;98838.91;4305541;33;34431;-74
2022/11/20 11:53:18;;;;;;;1.98;1.83;;;;;;;8.00;67.43;98838.81;4305566;33;35262;-73
2022/11/20 11:56:06;;;;;;;0.70;0.70;;;;;;;7.81;68.96;98826.87;4304792;33;33553;-73
2022/11/20 11:58:44;;;;;;;1.35;1.23;;;;;;;7.80;69.13;98828.59;4304556;33;33874;-73
2022/11/20 12:01:25;;;;;;;2.42;2.22;;;;;;;8.31;67.24;98833.31;4304371;33;35947;-74
2022/11/20 12:04:05;;;;;;;2.95;2.75;;;;;;;7.79;68.14;98834.66;4305572;33;34412;-73
2022/11/20 12:06:34;;;;;;;4.90;2.85;;;;;;;7.84;69.38;98826.84;4292456;33;34105;-74
2022/11/20 12:09:05;;;;;;;1.75;1.65;;;;;;;8.07;69.51;98829.25;4305440;33;34046;-74
2022/11/20 12:11:45;;;;;;;1.80;1.70;;;;;;;8.32;68.19;98830.72;4292254;33;35025;-74
2022/11/20 12:14:23;;;;;;;2.72;2.53;;;;;;;8.14;68.65;98831.75;4305444;33;35268;-74
2022/11/20 12:16:53;;;;;;;0.82;0.82;;;;;;;7.96;69.39;98829.34;4293019;33;33486;-74
2022/11/20 12:19:21;;;;;;;1.77;1.12;;;;;;;7.89;69.95;98831.12;4292542;33;33761;-73